Time;durP1;ratioP1;P1;durP2;ratioP2;P2;SDS_P1;SDS_P2;PMS_P1;PMS_P2;Temp;Humidity;BMP_temperature;BMP_pressure;BME280_temperature;BME280_humidity;BME280_pressure;Samples;Min_cycle;Max_cycle;Signal;HPM_P1;HPM_P2
2021/05/30 00:01:26;;;;;;;82.27;78.17;;;7.80;99.90;;;;;;6215873;23;20490;-84
2021/05/30 00:03:52;;;;;;;82.67;78.17;;;7.80;99.90;;;;;;6216354;23;20407;-83
2021/05/30 00:06:19;;;;;;;93.97;89.03;;;7.80;99.90;;;;;;6225818;23;20416;-82
2021/05/30 00:08:47;;;;;;;103.17;98.10;;;7.70;99.90;;;;;;6215220;23;20413;-83
2021/05/30 00:11:13;;;;;;;108.57;102.97;;;7.60;99.90;;;;;;6215945;23;20436;-83
2021/05/30 00:13:40;;;;;;;111.77;106.07;;;7.60;99.90;;;;;;6225600;23;20900;-83
2021/05/30 00:16:07;;;;;;;124.77;118.57;;;7.60;99.90;;;;;;6226359;23;20420;-83
2021/05/30 00:18:35;;;;;;;128.07;121.50;;;7.60;99.90;;;;;;6226249;23;20408;-82
2021/05/30 00:21:01;;;;;;;128.13;121.67;;;7.60;99.90;;;;;;6198217;23;20440;-83
2021/05/30 00:23:30;;;;;;;129.03;123.03;;;7.60;99.90;;;;;;6214162;23;20435;-83
2021/05/30 00:25:59;;;;;;;134.97;128.37;;;7.50;99.90;;;;;;6216231;23;20458;-83
2021/05/30 00:28:26;;;;;;;137.43;130.87;;;7.50;99.90;;;;;;6216148;23;20410;-83
2021/05/30 00:30:56;;;;;;;141.00;133.90;;;7.50;99.90;;;;;;6216239;23;20459;-83
2021/05/30 00:33:24;;;;;;;152.37;144.90;;;7.40;99.90;;;;;;6215622;23;20407;-83
2021/05/30 00:35:54;;;;;;;153.47;146.60;;;7.40;99.90;;;;;;6216066;23;20991;-83
2021/05/30 00:38:20;;;;;;;154.40;147.50;;;7.40;99.90;;;;;;6214668;23;20404;-82
2021/05/30 00:40:47;;;;;;;145.77;138.90;;;7.30;99.90;;;;;;6215513;23;20487;-83
2021/05/30 00:43:13;;;;;;;143.33;136.33;;;7.20;99.90;;;;;;6225667;23;20906;-83
2021/05/30 00:45:40;;;;;;;146.33;139.53;;;7.10;99.90;;;;;;6215690;23;20450;-83
2021/05/30 00:48:13;;;;;;;158.23;150.57;;;7.10;99.90;;;;;;6225827;23;20408;-83
2021/05/30 00:50:44;;;;;;;150.83;143.87;;;7.10;99.90;;;;;;6215620;23;20403;-83
2021/05/30 00:53:12;;;;;;;155.30;147.70;;;7.10;99.90;;;;;;6214320;23;20396;-83
2021/05/30 00:55:40;;;;;;;174.43;166.73;;;7.00;99.90;;;;;;6225632;23;20408;-83
2021/05/30 00:58:06;;;;;;;194.33;185.73;;;7.10;99.90;;;;;;6215481;23;20435;-83
2021/05/30 01:00:37;;;;;;;184.20;175.23;;;7.20;99.90;;;;;;6225516;23;20438;-83
2021/05/30 01:03:03;;;;;;;186.83;178.20;;;7.10;99.90;;;;;;6225922;23;20873;-83
2021/05/30 01:05:30;;;;;;;182.53;173.97;;;7.20;99.90;;;;;;6225716;23;20466;-83
2021/05/30 01:07:57;;;;;;;187.17;178.07;;;7.20;99.90;;;;;;6214114;23;20719;-82
2021/05/30 01:10:29;;;;;;;191.10;182.13;;;7.10;99.90;;;;;;6215766;23;20428;-83
2021/05/30 01:12:58;;;;;;;185.30;176.47;;;7.00;99.90;;;;;;6215236;23;20404;-83
2021/05/30 01:15:26;;;;;;;180.40;171.33;;;7.10;99.90;;;;;;6215756;23;20396;-82
2021/05/30 01:17:56;;;;;;;183.37;174.57;;;7.00;99.90;;;;;;6225668;23;20431;-83
2021/05/30 01:20:24;;;;;;;188.07;179.13;;;7.00;99.90;;;;;;6225884;23;20436;-83
2021/05/30 01:22:51;;;;;;;185.13;176.20;;;6.90;99.90;;;;;;6214241;23;20404;-82
2021/05/30 01:25:20;;;;;;;189.03;180.27;;;7.00;99.90;;;;;;6215729;23;20400;-82
2021/05/30 01:27:48;;;;;;;189.87;180.63;;;6.90;99.90;;;;;;6225060;23;20400;-82
2021/05/30 01:30:16;;;;;;;186.57;177.87;;;6.90;99.90;;;;;;6225855;23;20412;-83
2021/05/30 01:32:44;;;;;;;171.33;162.63;;;6.80;99.90;;;;;;6225561;23;20787;-82
2021/05/30 01:35:14;;;;;;;163.97;156.03;;;6.70;99.90;;;;;;6225786;23;20412;-83
2021/05/30 01:37:41;;;;;;;172.23;163.33;;;6.70;99.90;;;;;;6224129;23;20494;-83
2021/05/30 01:40:12;;;;;;;166.90;158.33;;;6.70;99.90;;;;;;6225159;23;20416;-82
2021/05/30 01:42:39;;;;;;;170.67;162.37;;;6.60;99.90;;;;;;6225385;23;20763;-83
2021/05/30 01:45:07;;;;;;;184.10;175.13;;;6.70;99.90;;;;;;6215258;23;20436;-82
2021/05/30 01:47:41;;;;;;;184.43;175.53;;;6.60;99.90;;;;;;6215492;23;20404;-83
2021/05/30 01:50:10;;;;;;;191.87;182.87;;;6.70;99.90;;;;;;6215647;23;20396;-83
2021/05/30 01:52:40;;;;;;;186.90;177.40;;;6.60;99.90;;;;;;6214152;23;20758;-82
2021/05/30 01:55:09;;;;;;;193.30;183.20;;;6.60;99.90;;;;;;6225516;23;20431;-83
2021/05/30 01:57:43;;;;;;;201.30;191.13;;;6.50;99.90;;;;;;6215348;23;20726;-83
2021/05/30 02:00:16;;;;;;;201.13;191.57;;;6.60;99.90;;;;;;6225527;23;20742;-83
2021/05/30 02:02:44;;;;;;;191.37;181.33;;;6.50;99.90;;;;;;6214801;23;20432;-83
2021/05/30 02:05:13;;;;;;;208.37;198.37;;;6.40;99.90;;;;;;6215582;23;20407;-82
2021/05/30 02:07:41;;;;;;;223.90;213.07;;;6.50;99.90;;;;;;6225261;23;20419;-82
2021/05/30 02:10:12;;;;;;;224.80;214.10;;;6.60;99.90;;;;;;6217201;23;20520;-82
2021/05/30 02:12:40;;;;;;;241.07;229.13;;;6.60;99.90;;;;;;6227558;23;20466;-83
2021/05/30 02:15:09;;;;;;;228.43;218.13;;;6.80;99.90;;;;;;6227134;23;20499;-82
2021/05/30 02:17:37;;;;;;;227.63;215.47;;;6.60;99.90;;;;;;6227172;23;21086;-83
2021/05/30 02:20:06;;;;;;;227.30;216.20;;;6.60;99.90;;;;;;6216707;23;20943;-82
2021/05/30 02:22:32;;;;;;;232.03;220.77;;;6.40;99.90;;;;;;6215589;23;20472;-83
2021/05/30 02:25:00;;;;;;;222.83;212.43;;;6.60;99.90;;;;;;6227121;23;20408;-82
2021/05/30 02:27:28;;;;;;;228.70;217.90;;;6.50;99.90;;;;;;6217033;23;20762;-83
2021/05/30 02:29:54;;;;;;;232.13;221.53;;;6.40;99.90;;;;;;6216823;23;20402;-82
2021/05/30 02:32:21;;;;;;;224.30;213.90;;;6.50;99.90;;;;;;6217277;23;20399;-82
2021/05/30 02:34:48;;;;;;;220.73;210.73;;;6.30;99.90;;;;;;6216738;23;20396;-82
2021/05/30 02:37:16;;;;;;;217.23;207.03;;;6.30;99.90;;;;;;6215401;23;20428;-83
2021/05/30 02:39:45;;;;;;;220.43;209.37;;;6.40;99.90;;;;;;6227200;23;20423;-82
2021/05/30 02:42:12;;;;;;;219.93;209.63;;;6.30;99.90;;;;;;6216872;23;20464;-82
2021/05/30 02:44:39;;;;;;;212.53;202.03;;;6.20;99.90;;;;;;6217212;23;20479;-82
2021/05/30 02:47:08;;;;;;;205.03;195.43;;;6.20;99.90;;;;;;6216529;23;20407;-82
2021/05/30 02:49:35;;;;;;;212.80;202.53;;;6.10;99.90;;;;;;6227161;23;20416;-83
2021/05/30 02:52:02;;;;;;;218.97;207.47;;;6.00;99.90;;;;;;6215338;23;20411;-83
2021/05/30 02:54:32;;;;;;;216.83;206.47;;;5.90;99.90;;;;;;6216680;23;20435;-81
2021/05/30 02:56:58;;;;;;;206.80;197.27;;;6.00;99.90;;;;;;6216946;23;20487;-82
2021/05/30 02:59:25;;;;;;;203.13;191.70;;;5.90;99.90;;;;;;6216714;23;20439;-82
2021/05/30 03:01:51;;;;;;;203.17;193.37;;;5.90;99.90;;;;;;6216645;23;20490;-83
2021/05/30 03:04:18;;;;;;;209.27;199.37;;;5.80;99.90;;;;;;6226701;23;20503;-82
2021/05/30 03:06:46;;;;;;;218.83;208.47;;;5.90;99.90;;;;;;6215630;23;20749;-82
2021/05/30 03:09:12;;;;;;;211.53;201.13;;;5.80;99.90;;;;;;6216746;23;20511;-81
2021/05/30 03:11:39;;;;;;;216.13;205.93;;;6.00;99.90;;;;;;6216584;23;20877;-82
2021/05/30 03:14:06;;;;;;;214.33;204.40;;;5.80;99.90;;;;;;6216815;23;20400;-81
2021/05/30 03:16:32;;;;;;;219.27;208.67;;;5.70;99.90;;;;;;6226888;23;20419;-82
2021/05/30 03:18:59;;;;;;;209.67;199.77;;;5.70;99.90;;;;;;6226577;23;20432;-82
2021/05/30 03:21:27;;;;;;;209.10;198.97;;;5.80;99.90;;;;;;6215902;23;20435;-82
2021/05/30 03:23:54;;;;;;;221.73;211.03;;;5.80;99.90;;;;;;6226750;23;20403;-81
2021/05/30 03:26:23;;;;;;;215.97;205.87;;;5.80;99.90;;;;;;6216440;23;20491;-80
2021/05/30 03:28:49;;;;;;;221.10;211.03;;;5.80;99.90;;;;;;6216234;23;20396;-83
2021/05/30 03:31:16;;;;;;;220.93;211.00;;;5.70;99.90;;;;;;6216453;23;20393;-80
2021/05/30 03:37:10;;;;;;;227.93;216.80;;;5.70;99.90;;;;;;6127297;23;20781;-83
2021/05/30 03:39:41;;;;;;;216.70;206.47;;;5.70;99.90;;;;;;6137008;23;20513;-82
2021/05/30 03:42:13;;;;;;;208.27;198.73;;;5.60;99.90;;;;;;6127000;23;20462;-84
2021/05/30 03:44:42;;;;;;;219.97;209.37;;;5.60;99.90;;;;;;6136090;23;20415;-83
2021/05/30 03:50:35;;;;;;;208.80;199.17;;;5.70;99.90;;;;;;6116965;23;20414;-83
2021/05/30 03:53:04;;;;;;;219.00;207.37;;;5.60;99.90;;;;;;6125579;23;20434;-79
2021/05/30 03:55:32;;;;;;;214.00;203.90;;;5.70;99.90;;;;;;6127434;23;20926;-83
2021/05/30 03:58:00;;;;;;;218.63;208.43;;;5.70;99.90;;;;;;6136956;23;20462;-83
2021/05/30 04:00:46;;;;;;;211.73;201.43;;;5.80;99.90;;;;;;6126938;23;20729;-85
2021/05/30 04:32:13;;;;;;;217.03;207.47;;;6.30;99.90;;;;;;6075788;23;20420;-83
2021/05/30 04:34:40;;;;;;;221.57;211.17;;;6.30;99.90;;;;;;6126515;23;20425;-82
2021/05/30 04:37:06;;;;;;;232.33;221.13;;;6.40;99.90;;;;;;6134729;23;20438;-82
2021/05/30 04:39:32;;;;;;;232.30;221.80;;;6.30;99.90;;;;;;6126500;23;20957;-82
2021/05/30 04:41:59;;;;;;;234.77;223.87;;;6.50;99.90;;;;;;6135701;23;20795;-81
2021/05/30 04:44:25;;;;;;;234.47;222.97;;;6.50;99.90;;;;;;6126746;23;20438;-81
2021/05/30 04:46:52;;;;;;;235.00;223.60;;;6.50;99.90;;;;;;6136215;23;20414;-79
2021/05/30 04:49:19;;;;;;;236.27;224.93;;;6.50;99.90;;;;;;6125906;23;20407;-84
2021/05/30 04:51:47;;;;;;;235.27;224.37;;;6.60;99.90;;;;;;6135082;23;20740;-83
2021/05/30 04:54:14;;;;;;;244.10;232.77;;;6.70;99.90;;;;;;6136020;23;20415;-82
2021/05/30 04:56:40;;;;;;;242.53;230.37;;;6.80;99.90;;;;;;6135922;23;20787;-83
2021/05/30 04:59:07;;;;;;;247.70;235.50;;;6.80;99.90;;;;;;6126766;23;20726;-82
2021/05/30 05:01:33;;;;;;;251.17;239.47;;;7.00;99.90;;;;;;6135859;23;20431;-81
2021/05/30 05:03:59;;;;;;;256.77;244.57;;;7.20;99.90;;;;;;6135982;23;20414;-81
2021/05/30 05:06:29;;;;;;;268.17;255.10;;;7.30;99.90;;;;;;6135307;23;20411;-81
2021/05/30 05:08:57;;;;;;;274.87;261.07;;;7.40;99.90;;;;;;6135799;23;20497;-81
2021/05/30 05:11:23;;;;;;;280.77;267.47;;;7.60;99.90;;;;;;6136218;23;20946;-82
2021/05/30 05:13:50;;;;;;;277.80;263.50;;;7.90;99.90;;;;;;6126491;23;20461;-81
2021/05/30 05:16:17;;;;;;;292.80;278.80;;;8.10;99.90;;;;;;6126048;23;20438;-80
2021/05/30 05:18:44;;;;;;;332.90;317.13;;;8.20;99.90;;;;;;6126406;23;20403;-80
2021/05/30 05:21:12;;;;;;;373.47;355.67;;;8.60;99.90;;;;;;6136040;23;20430;-80
2021/05/30 05:23:43;;;;;;;405.73;386.37;;;9.00;99.90;;;;;;6134220;23;20753;-81
2021/05/30 05:26:15;;;;;;;408.87;389.90;;;9.60;99.90;;;;;;6136114;23;20749;-82
2021/05/30 05:28:42;;;;;;;368.17;350.63;;;10.10;99.90;;;;;;6126452;23;20406;-82
2021/05/30 05:31:33;;;;;;;192.13;181.97;;;10.70;99.90;;;;;;6125966;23;20416;-88
2021/05/30 05:37:01;;;;;;;38.67;14.43;;;12.30;99.90;;;;;;6129462;23;20846;-81
2021/05/30 05:39:33;;;;;;;35.97;12.10;;;13.10;99.90;;;;;;6125869;23;20418;-82
2021/05/30 05:42:01;;;;;;;35.30;10.83;;;13.70;99.90;;;;;;6135310;23;20941;-81
2021/05/30 05:44:28;;;;;;;38.73;10.13;;;14.30;99.90;;;;;;6125576;23;20458;-81
2021/05/30 05:46:56;;;;;;;41.80;11.30;;;15.00;99.90;;;;;;6135501;23;20485;-82
2021/05/30 05:49:24;;;;;;;39.23;10.20;;;15.40;99.90;;;;;;6125928;23;20411;-82
2021/05/30 05:52:05;;;;;;;42.93;11.40;;;15.70;99.90;;;;;;6134316;23;20414;-82
2021/05/30 05:54:54;;;;;;;49.43;11.90;;;16.00;93.90;;;;;;6125873;23;20450;-82
2021/05/30 05:57:21;;;;;;;47.00;11.23;;;16.20;73.40;;;;;;6135933;23;20409;-83
2021/05/30 05:59:50;;;;;;;42.50;10.30;;;16.20;63.10;;;;;;6135969;23;20730;-82
2021/05/30 06:02:40;;;;;;;42.70;10.10;;;16.60;56.40;;;;;;6135646;23;20430;-83
2021/05/30 06:05:13;;;;;;;42.73;9.50;;;16.70;54.40;;;;;;6135812;23;20763;-83
2021/05/30 06:07:44;;;;;;;43.17;9.40;;;17.20;50.60;;;;;;6134183;23;20438;-84
2021/05/30 06:10:22;;;;;;;46.90;11.00;;;17.00;45.40;;;;;;6125741;23;20431;-80
2021/05/30 06:12:55;;;;;;;46.10;10.70;;;17.40;42.80;;;;;;6126112;23;20437;-82
2021/05/30 06:15:23;;;;;;;45.80;8.60;;;17.50;31.90;;;;;;6135583;23;20512;-83
2021/05/30 06:17:53;;;;;;;49.03;9.00;;;17.20;26.60;;;;;;6134782;23;20414;-81
2021/05/30 06:20:20;;;;;;;50.03;9.93;;;17.30;30.50;;;;;;6125778;23;20407;-82
2021/05/30 06:22:48;;;;;;;50.43;9.53;;;17.70;29.70;;;;;;6124205;23;20446;-82
2021/05/30 06:25:17;;;;;;;48.80;9.33;;;17.60;26.10;;;;;;6126282;23;20734;-82
2021/05/30 06:27:44;;;;;;;47.53;8.43;;;17.90;25.50;;;;;;6125252;23;20476;-82
2021/05/30 06:30:15;;;;;;;48.07;8.37;;;18.00;27.20;;;;;;6126031;23;20398;-82
2021/05/30 06:32:42;;;;;;;50.87;8.93;;;18.20;24.70;;;;;;6125310;23;20730;-81
2021/05/30 06:35:29;;;;;;;50.97;9.27;;;18.30;19.70;;;;;;6125376;23;20407;-83
2021/05/30 06:37:55;;;;;;;48.47;7.63;;;18.30;21.00;;;;;;6123539;23;20734;-82
2021/05/30 06:40:24;;;;;;;50.30;7.77;;;18.00;14.80;;;;;;6125438;23;20406;-83
2021/05/30 06:42:52;;;;;;;48.00;7.47;;;18.10;13.90;;;;;;6135143;23;20435;-83
2021/05/30 06:45:20;;;;;;;46.07;7.47;;;18.00;13.90;;;;;;6125473;23;20706;-81
2021/05/30 06:47:48;;;;;;;50.00;9.33;;;18.40;15.50;;;;;;6135269;23;20419;-83
2021/05/30 06:50:14;;;;;;;48.53;7.77;;;18.50;14.70;;;;;;6135367;23;20414;-82
2021/05/30 06:52:43;;;;;;;48.77;7.60;;;18.30;11.30;;;;;;6124192;23;20407;-81
2021/05/30 06:55:09;;;;;;;49.03;8.13;;;18.40;12.60;;;;;;6127010;23;20958;-82
2021/05/30 06:57:43;;;;;;;50.43;8.70;;;18.30;11.90;;;;;;6136558;23;20456;-82
2021/05/30 07:00:13;;;;;;;51.00;8.80;;;18.70;13.20;;;;;;6127527;23;20727;-81
2021/05/30 07:02:40;;;;;;;48.20;7.53;;;18.90;11.40;;;;;;6137019;23;20513;-81
2021/05/30 07:05:07;;;;;;;52.50;8.87;;;18.70;11.30;;;;;;6136483;23;20502;-82
2021/05/30 07:07:33;;;;;;;49.30;8.33;;;19.20;11.70;;;;;;6125385;23;20969;-82
2021/05/30 07:10:35;;;;;;;;;;;;;;;;;;;;;
2021/05/30 07:30:24;;;;;;;47.30;6.60;;;19.40;11.80;;;;;;5825249;24;20511;-84
2021/05/30 07:32:51;;;;;;;50.90;6.73;;;19.40;7.50;;;;;;5817736;24;20428;-81
2021/05/30 07:35:17;;;;;;;49.77;7.10;;;19.60;6.50;;;;;;5940046;23;20551;-80
2021/05/30 07:37:44;;;;;;;50.10;6.70;;;19.60;8.10;;;;;;6022858;23;20414;-86
2021/05/30 07:40:11;;;;;;;50.37;7.20;;;19.80;7.60;;;;;;6136383;23;20442;-81
2021/05/30 07:42:38;;;;;;;49.93;6.63;;;19.90;5.30;;;;;;6123251;23;20439;-81
2021/05/30 07:45:05;;;;;;;48.87;6.97;;;19.80;4.40;;;;;;6125180;23;20734;-82
2021/05/30 07:47:34;;;;;;;48.93;6.93;;;19.70;4.30;;;;;;6125200;23;20771;-81
2021/05/30 07:50:08;;;;;;;48.50;7.10;;;19.30;4.00;;;;;;6125609;23;20430;-83
2021/05/30 07:52:38;;;;;;;45.50;6.07;;;19.00;3.80;;;;;;6133886;23;20798;-82
2021/05/30 07:55:13;;;;;;;49.83;8.10;;;19.50;7.20;;;;;;6125060;23;20399;-83
2021/05/30 07:57:40;;;;;;;47.63;6.63;;;19.40;4.10;;;;;;6125966;23;20732;-83
2021/05/30 08:00:10;;;;;;;45.30;6.40;;;19.90;2.70;;;;;;6125609;23;20402;-82
2021/05/30 08:02:42;;;;;;;47.47;7.07;;;19.90;3.90;;;;;;6125592;23;20442;-83
2021/05/30 08:05:14;;;;;;;47.17;6.43;;;20.00;3.50;;;;;;6125325;23;20403;-83
2021/05/30 08:07:40;;;;;;;47.20;7.07;;;20.40;1.30;;;;;;6134059;23;20430;-82
2021/05/30 08:13:28;;;;;;;45.67;6.20;;;20.40;1.00;;;;;;6104449;23;20422;-83
2021/05/30 08:15:58;;;;;;;49.20;7.40;;;20.50;1.00;;;;;;6134922;23;20414;-81
2021/05/30 08:18:25;;;;;;;46.50;5.80;;;20.80;1.00;;;;;;6125093;23;20490;-81
2021/05/30 08:20:52;;;;;;;46.00;5.50;;;20.60;1.00;;;;;;6124967;23;20768;-82
2021/05/30 08:23:18;;;;;;;47.30;5.83;;;20.60;1.00;;;;;;6133393;23;20977;-82
2021/05/30 08:25:46;;;;;;;45.00;5.77;;;20.70;1.00;;;;;;6125487;23;20438;-82
2021/05/30 08:28:13;;;;;;;47.77;4.77;;;20.90;1.00;;;;;;6135097;23;20502;-82
2021/05/30 09:01:57;;;;;;;49.00;5.70;;;22.20;1.00;;;;;;6126277;23;20457;-78
2021/05/30 09:04:34;;;;;;;49.87;5.80;;;22.60;1.00;;;;;;6123491;23;20406;-79
2021/05/30 09:07:00;;;;;;;50.97;5.77;;;22.80;1.00;;;;;;6122799;23;20431;-78
2021/05/30 09:09:36;;;;;;;49.10;5.47;;;23.30;1.00;;;;;;6124698;23;20430;-77
2021/05/30 09:12:02;;;;;;;51.33;5.20;;;23.20;1.00;;;;;;6124398;23;20402;-80
2021/05/30 09:14:32;;;;;;;50.97;5.90;;;23.30;1.00;;;;;;6124319;23;20955;-82
2021/05/30 09:17:01;;;;;;;57.13;8.90;;;23.70;1.00;;;;;;6124350;23;20473;-84
2021/05/30 09:31:32;;;;;;;51.33;5.67;;;23.40;1.00;;;;;;6020585;23;20993;-82
2021/05/30 09:34:00;;;;;;;52.37;5.33;;;23.90;1.00;;;;;;6036289;23;20530;-80
2021/05/30 09:55:12;;;;;;;;;;;;;;;;;;;;;
2021/05/30 10:08:48;;;;;;;;;;;;;;;;;;;;;
2021/05/30 10:11:18;;;;;;;48.10;2.90;;;24.40;1.00;;;;;;5871064;24;20417;-84
2021/05/30 10:13:44;;;;;;;49.40;3.83;;;23.80;1.00;;;;;;6000616;23;20423;-88
2021/05/30 10:16:11;;;;;;;48.33;3.30;;;24.40;1.00;;;;;;6135159;23;20446;-81
2021/05/30 10:18:44;;;;;;;49.63;3.60;;;25.30;1.00;;;;;;6136069;23;20407;-81
2021/05/30 10:21:14;;;;;;;49.37;3.63;;;25.80;1.00;;;;;;6125483;23;20411;-80
2021/05/30 10:23:41;;;;;;;49.53;3.50;;;26.20;1.00;;;;;;6123019;23;20953;-78
2021/05/30 10:26:19;;;;;;;49.17;3.30;;;24.90;1.00;;;;;;6125796;23;20415;-80
2021/05/30 10:28:48;;;;;;;50.00;3.47;;;26.10;1.00;;;;;;6126136;23;20819;-76
2021/05/30 10:31:23;;;;;;;52.33;4.03;;;26.30;1.00;;;;;;6137307;23;20442;-76
2021/05/30 10:34:17;;;;;;;51.83;3.87;;;26.40;1.00;;;;;;6137352;23;20847;-78
2021/05/30 10:36:45;;;;;;;52.87;3.83;;;26.60;1.00;;;;;;6135859;23;20446;-81
2021/05/30 10:39:34;;;;;;;52.60;3.93;;;26.80;1.00;;;;;;6137586;23;20410;-81
2021/05/30 10:42:13;;;;;;;52.20;4.00;;;26.50;1.00;;;;;;6127031;23;20427;-80
2021/05/30 10:44:59;;;;;;;52.27;4.07;;;27.30;1.00;;;;;;6137583;23;20412;-81
2021/05/30 10:48:18;;;;;;;55.07;3.30;;;27.50;1.00;;;;;;6127186;23;20406;-82
2021/05/30 10:50:56;;;;;;;52.70;4.10;;;26.80;1.00;;;;;;6127275;23;20901;-82
2021/05/30 10:53:37;;;;;;;51.20;3.50;;;25.80;1.00;;;;;;6135194;23;20487;-80
2021/05/30 10:56:22;;;;;;;52.67;3.53;;;26.90;1.00;;;;;;6136467;23;20380;-82
2021/05/30 10:59:22;;;;;;;52.20;3.33;;;26.70;1.00;;;;;;6126700;23;20414;-82
2021/05/30 11:01:51;;;;;;;51.90;3.80;;;27.20;1.00;;;;;;6123316;23;20453;-84
2021/05/30 11:04:42;;;;;;;52.90;4.70;;;27.50;1.00;;;;;;6136595;23;20433;-83
2021/05/30 11:07:28;;;;;;;52.33;3.67;;;27.80;1.00;;;;;;6135963;23;20493;-81
2021/05/30 11:10:05;;;;;;;52.63;3.93;;;28.90;1.00;;;;;;6136853;23;20879;-81
2021/05/30 11:12:51;;;;;;;53.60;3.63;;;29.50;1.00;;;;;;6136436;23;20396;-82
2021/05/30 11:15:34;;;;;;;52.67;3.50;;;29.90;1.00;;;;;;6136663;23;20887;-82
2021/05/30 11:18:02;;;;;;;54.77;4.43;;;29.30;1.00;;;;;;6137364;23;20415;-81
2021/05/30 11:20:44;;;;;;;57.23;3.83;;;29.30;1.00;;;;;;6127214;23;20402;-84
2021/05/30 11:23:13;;;;;;;58.07;4.97;;;29.40;1.00;;;;;;6135876;23;20442;-82
2021/05/30 11:25:45;;;;;;;60.43;3.97;;;29.90;1.00;;;;;;6136959;23;20916;-82
2021/05/30 11:28:12;;;;;;;57.57;4.37;;;29.30;1.00;;;;;;6127100;23;20403;-82
2021/05/30 11:30:47;;;;;;;55.70;3.93;;;30.30;1.00;;;;;;6136662;23;20396;-81
2021/05/30 11:33:26;;;;;;;54.60;4.00;;;29.60;1.00;;;;;;6127168;23;20399;-77
2021/05/30 11:35:55;;;;;;;54.77;3.63;;;27.80;1.00;;;;;;6136866;23;20418;-76
2021/05/30 11:38:35;;;;;;;52.40;3.50;;;27.10;1.00;;;;;;6135130;23;20388;-77
2021/05/30 11:41:17;;;;;;;55.67;3.80;;;27.20;1.00;;;;;;6136679;23;20402;-77
2021/05/30 11:44:12;;;;;;;54.50;4.00;;;26.70;1.00;;;;;;6136011;23;20782;-76
2021/05/30 11:46:42;;;;;;;52.80;3.83;;;27.60;1.00;;;;;;6126460;23;20906;-76
2021/05/30 11:49:16;;;;;;;51.83;3.73;;;27.40;1.00;;;;;;6136148;23;20404;-77
2021/05/30 11:51:49;;;;;;;51.60;3.07;;;27.30;1.00;;;;;;6125551;23;20466;-77
2021/05/30 11:54:16;;;;;;;52.93;3.80;;;26.60;1.00;;;;;;6136458;23;20406;-76
2021/05/30 11:56:43;;;;;;;52.03;3.50;;;25.20;1.00;;;;;;6136613;23;20429;-76
2021/05/30 11:59:11;;;;;;;51.80;3.63;;;24.50;1.00;;;;;;6126952;23;20407;-77
2021/05/30 12:01:47;;;;;;;49.97;3.63;;;24.10;1.00;;;;;;6126489;23;20777;-77
2021/05/30 12:04:32;;;;;;;49.17;3.60;;;24.60;1.00;;;;;;6136154;23;20415;-78
2021/05/30 12:06:59;;;;;;;47.43;3.30;;;24.20;1.00;;;;;;6132326;23;20446;-76
2021/05/30 12:09:43;;;;;;;44.27;2.63;;;25.20;1.00;;;;;;6124886;23;20403;-77
2021/05/30 12:12:24;;;;;;;44.63;3.53;;;25.30;1.00;;;;;;6124954;23;20398;-75
2021/05/30 12:14:50;;;;;;;45.40;3.20;;;26.80;1.00;;;;;;6135021;23;20403;-79
2021/05/30 12:17:17;;;;;;;45.87;2.67;;;28.10;1.00;;;;;;6125242;23;20371;-76
2021/05/30 12:19:44;;;;;;;48.47;3.57;;;29.40;1.00;;;;;;6125182;23;20781;-76
2021/05/30 12:22:19;;;;;;;49.03;3.00;;;30.00;1.00;;;;;;6132939;23;20928;-77
2021/05/30 12:24:46;;;;;;;50.43;3.90;;;31.20;1.00;;;;;;6125238;23;20373;-78
2021/05/30 12:27:13;;;;;;;49.57;3.00;;;30.40;1.00;;;;;;6134121;23;20795;-77
2021/05/30 12:29:43;;;;;;;54.07;3.33;;;28.50;1.00;;;;;;6134548;23;20410;-76
2021/05/30 12:32:09;;;;;;;51.07;3.30;;;28.70;1.00;;;;;;6134433;23;20396;-77
2021/05/30 12:34:36;;;;;;;53.47;3.50;;;29.00;1.00;;;;;;6134829;23;20461;-76
2021/05/30 12:37:04;;;;;;;51.80;3.70;;;28.40;1.00;;;;;;6133394;23;20465;-77
2021/05/30 12:39:31;;;;;;;52.13;3.80;;;28.00;1.00;;;;;;6125868;23;20426;-78
2021/05/30 12:41:59;;;;;;;50.77;3.07;;;29.00;1.00;;;;;;6136044;23;20458;-76
2021/05/30 12:44:36;;;;;;;51.43;3.47;;;29.00;1.00;;;;;;6125971;23;20438;-76
2021/05/30 12:47:07;;;;;;;49.90;3.00;;;29.00;1.00;;;;;;6126038;23;20414;-77
2021/05/30 12:49:34;;;;;;;49.90;3.40;;;28.50;1.00;;;;;;6126095;23;20427;-77
2021/05/30 12:52:16;;;;;;;52.57;3.27;;;28.40;1.00;;;;;;6123994;23;20407;-81
2021/05/30 12:54:44;;;;;;;51.40;3.50;;;28.10;1.00;;;;;;6126411;23;20407;-81
2021/05/30 12:57:13;;;;;;;50.97;4.23;;;27.80;1.00;;;;;;6126611;23;20842;-81
2021/05/30 12:59:47;;;;;;;51.40;3.63;;;27.20;1.00;;;;;;6125947;23;20482;-80
2021/05/30 13:02:14;;;;;;;50.57;3.80;;;27.20;1.00;;;;;;6126301;23;20435;-80
2021/05/30 13:04:43;;;;;;;49.47;3.40;;;26.50;1.00;;;;;;6126236;23;20403;-82
2021/05/30 13:07:15;;;;;;;54.03;3.67;;;25.70;1.00;;;;;;6134506;23;20474;-81
2021/05/30 13:09:48;;;;;;;49.67;3.43;;;26.10;1.00;;;;;;6126515;23;20403;-81
2021/05/30 13:12:43;;;;;;;50.00;3.90;;;27.40;1.00;;;;;;6126100;23;20733;-81
2021/05/30 13:15:18;;;;;;;50.57;3.43;;;28.30;1.00;;;;;;6075089;23;20418;-79
2021/05/30 13:17:48;;;;;;;49.90;3.33;;;28.40;1.00;;;;;;6126323;23;20821;-80
2021/05/30 13:20:16;;;;;;;51.97;3.93;;;27.50;1.00;;;;;;6136075;23;20769;-79
2021/05/30 13:23:01;;;;;;;51.00;4.20;;;27.90;1.00;;;;;;6124770;23;20812;-79
2021/05/30 13:25:31;;;;;;;50.87;3.80;;;27.70;1.00;;;;;;6126356;23;20409;-80
2021/05/30 13:28:22;;;;;;;50.20;3.70;;;29.50;1.00;;;;;;6135824;23;20459;-81
2021/05/30 13:30:52;;;;;;;52.70;3.73;;;29.10;1.00;;;;;;6135768;23;20801;-80
2021/05/30 13:33:19;;;;;;;52.50;3.50;;;30.10;1.00;;;;;;6126083;23;20912;-81
2021/05/30 13:35:46;;;;;;;52.10;3.33;;;30.40;1.00;;;;;;6126346;23;20495;-81
2021/05/30 13:38:15;;;;;;;53.77;3.83;;;28.80;1.00;;;;;;6124430;23;20463;-81
2021/05/30 13:40:59;;;;;;;54.07;4.30;;;27.90;1.00;;;;;;6135603;23;20419;-82
2021/05/30 13:43:26;;;;;;;53.17;4.50;;;27.00;1.00;;;;;;6135722;23;20605;-81
2021/05/30 13:45:53;;;;;;;53.77;3.60;;;27.80;1.00;;;;;;6125758;23;20915;-81
2021/05/30 13:48:22;;;;;;;55.60;3.83;;;27.60;1.00;;;;;;6126215;23;20399;-82
2021/05/30 13:51:00;;;;;;;53.60;3.60;;;28.30;1.00;;;;;;6126168;23;20472;-79
2021/05/30 13:53:28;;;;;;;52.23;4.03;;;28.00;1.00;;;;;;6124473;23;20772;-83
2021/05/30 13:55:54;;;;;;;52.37;3.60;;;27.20;1.00;;;;;;6123432;23;20434;-80
2021/05/30 13:58:21;;;;;;;51.90;3.67;;;28.00;1.00;;;;;;6133972;23;20406;-82
2021/05/30 14:00:47;;;;;;;51.67;3.53;;;27.20;1.00;;;;;;6124847;23;20898;-82
2021/05/30 14:03:14;;;;;;;51.47;3.17;;;26.50;1.00;;;;;;6135094;23;20428;-82
2021/05/30 14:05:40;;;;;;;51.03;3.10;;;25.70;1.00;;;;;;6126501;23;20526;-82
2021/05/30 14:08:08;;;;;;;50.57;3.20;;;25.10;1.00;;;;;;6125305;23;21022;-81
2021/05/30 14:10:35;;;;;;;51.57;3.87;;;24.50;1.00;;;;;;6126375;23;20885;-82
2021/05/30 14:13:05;;;;;;;51.07;4.00;;;24.20;1.00;;;;;;6126086;23;20474;-83
2021/05/30 14:15:34;;;;;;;48.50;3.57;;;24.90;1.00;;;;;;6126173;23;20493;-81
2021/05/30 14:18:00;;;;;;;47.40;3.60;;;25.70;1.00;;;;;;6136011;23;20497;-83
2021/05/30 14:20:27;;;;;;;46.60;3.30;;;26.20;1.00;;;;;;6135985;23;20427;-80
2021/05/30 14:22:53;;;;;;;48.37;3.80;;;27.00;1.00;;;;;;6124893;23;20513;-83
2021/05/30 14:25:20;;;;;;;47.83;3.67;;;28.00;1.00;;;;;;6135745;23;20411;-85
2021/05/30 14:27:47;;;;;;;49.23;3.60;;;28.80;1.00;;;;;;6126344;23;20389;-84
2021/05/30 14:30:14;;;;;;;48.80;2.73;;;28.60;1.00;;;;;;6135558;23;20418;-84
2021/05/30 14:32:41;;;;;;;48.70;3.00;;;28.50;1.00;;;;;;6126677;23;20462;-80
2021/05/30 14:35:09;;;;;;;52.90;2.90;;;28.20;1.00;;;;;;6126677;23;20407;-82
2021/05/30 14:37:36;;;;;;;50.53;3.03;;;27.50;1.00;;;;;;6126218;23;20402;-81
2021/05/30 14:40:03;;;;;;;52.80;3.80;;;28.30;1.00;;;;;;6127246;23;20433;-83
2021/05/30 14:42:29;;;;;;;53.40;3.37;;;27.90;1.00;;;;;;6127384;23;20986;-83
2021/05/30 14:44:56;;;;;;;52.30;3.30;;;27.90;1.00;;;;;;6127460;23;20773;-82
2021/05/30 14:47:23;;;;;;;53.03;3.37;;;27.50;1.00;;;;;;6127157;23;20450;-81
2021/05/30 14:49:51;;;;;;;57.43;3.20;;;26.90;1.00;;;;;;6127450;23;20460;-83
2021/05/30 14:52:19;;;;;;;52.60;3.50;;;26.40;1.00;;;;;;6135225;23;20475;-85
2021/05/30 14:54:45;;;;;;;52.30;3.63;;;26.40;1.00;;;;;;6127257;23;20403;-82
2021/05/30 14:57:12;;;;;;;51.47;3.37;;;26.70;1.00;;;;;;6127699;23;21002;-82
2021/05/30 14:59:38;;;;;;;51.90;3.10;;;27.00;1.00;;;;;;6137736;23;20392;-83
2021/05/30 15:02:05;;;;;;;52.10;3.20;;;28.00;1.00;;;;;;6127688;23;20837;-82
2021/05/30 15:04:32;;;;;;;51.57;3.80;;;28.30;1.00;;;;;;6127152;23;20466;-81
2021/05/30 15:06:58;;;;;;;52.00;3.20;;;29.00;1.00;;;;;;6126494;23;20446;-83